• Join FlightAware (Why Join?)
  • Login
  • US Flag 
Rudolph Flight #1: Arrived! 
08:00AM EST


 

Airport Tracker/Info


-or-


 

Live Flight TrackerFlight Track Log ✈ N51847 ✈ 29-Apr-2012 ✈ KVUO - KEAT

Flight Track Log - Related Links

Times and Time Zones

All times are in EDT time to prevent confusion due to time zone crossing. See the N51847 flight status page for this flight to view local times or setup timezone preferences in your user account.

Time Position Orientation Groundspeed Altitude Reporting Facility
EDT Latitude Longitude Course Direction KTS MPH feet Rate Location/Type
01:17PM 45.6192 -122.6411 33° Northeast 97 112 500  Level Seattle Center
01:18PM 45.6406 -122.6211 15° North 91 105 1,800 900 Climbing Seattle Center
01:19PM 45.6689 -122.6103 North 96 110 2,700 720 Climbing Seattle Center
01:20PM 45.6972 -122.6089 North 95 109 3,500 600 Climbing Seattle Center
01:21PM 45.7256 -122.6075 28° Northeast 101 116 4,100 660 Climbing Seattle Center
01:22PM 45.7478 -122.5903 57° Northeast 104 120 4,800 720 Climbing Seattle Center
01:23PM 45.7578 -122.5681 80° East 111 128 5,200 660 Climbing Seattle Center
01:24PM 45.7631 -122.5261 82° East 114 131 5,900 660 Climbing Seattle Center
01:25PM 45.7669 -122.4839 73° East 112 129 6,600 600 Climbing Seattle Center
01:26PM 45.7758 -122.4428 74° East 109 125 7,200 600 Climbing Seattle Center
01:27PM 45.7847 -122.3986 78° East 114 131 7,900 600 Climbing Seattle Center
01:28PM 45.7917 -122.3525 74° East 117 135 8,500 540 Climbing Seattle Center
01:29PM 45.8011 -122.3058 71° East 120 138 9,000 240 Climbing Seattle Center
01:30PM 45.8131 -122.2558 71° East 129 148 9,000 -60 Level Seattle Center
01:31PM 45.8267 -122.1986 76° East 149 171 8,900  Descending Seattle Center
01:32PM 45.8386 -122.1275 72° East 152 175 9,000  Climbing Seattle Center
01:33PM 45.8514 -122.0722 77° East 149 171 8,900 -60 Descending Seattle Center
01:34PM 45.8608 -122.0139 82° East 150 173 8,900  Level Seattle Center
01:35PM 45.8669 -121.9547 79° East 150 173 9,000  Climbing Seattle Center
01:36PM 45.8756 -121.8931 72° East 149 171 8,900 -60 Descending Seattle Center
01:37PM 45.8881 -121.8375 76° East 148 170 8,900  Level Seattle Center
01:38PM 45.8983 -121.7800 79° East 149 171 8,900  Level Seattle Center
01:39PM 45.9058 -121.7222 78° East 147 169 8,900  Level Seattle Center
01:40PM 45.9142 -121.6642 78° East 149 171 8,900  Level Seattle Center
01:41PM 45.9231 -121.6061 69° East 150 173 8,900  Level Seattle Center
01:42PM 45.9378 -121.5514 82° East 149 171 8,900  Level Seattle Center
01:43PM 45.9436 -121.4925 73° East 148 170 8,900  Level Seattle Center
01:44PM 45.9583 -121.4250 75° East 148 170 8,900  Level Seattle Center
01:45PM 45.9689 -121.3686 55° Northeast 148 170 8,900  Level Seattle Center
01:46PM 45.9911 -121.3231 44° Northeast 141 162 8,900  Level Seattle Center
01:47PM 46.0214 -121.2808 44° Northeast 152 175 8,900  Level Seattle Center
01:48PM 46.0503 -121.2400 48° Northeast 148 170 8,900  Level Seattle Center
01:49PM 46.0767 -121.1975 44° Northeast 145 167 8,900  Level Seattle Center
01:50PM 46.1067 -121.1564 47° Northeast 147 169 8,900  Level Seattle Center
01:51PM 46.1333 -121.1147 43° Northeast 145 167 8,900  Level Seattle Center
01:52PM 46.1614 -121.0769 29° Northeast 143 165 8,900  Level Seattle Center
01:53PM 46.2025 -121.0436 22° Northeast 140 161 8,900 -60 Level Seattle Center
01:54PM 46.2417 -121.0208 25° Northeast 150 173 8,800  Descending Seattle Center
01:55PM 46.2806 -120.9950 26° Northeast 152 175 8,900  Climbing Seattle Center
01:56PM 46.3175 -120.9692 22° Northeast 149 171 8,900  Level Seattle Center
01:57PM 46.3550 -120.9475 25° Northeast 146 168 8,900  Level Seattle Center
01:58PM 46.3914 -120.9231 27° Northeast 145 167 8,900  Level Seattle Center
01:59PM 46.4281 -120.8964 25° Northeast 148 170 8,900  Level Seattle Center
02:00PM 46.4650 -120.8708 25° Northeast 149 171 8,900  Level Seattle Center
02:01PM 46.5000 -120.8475 23° Northeast 147 169 8,900  Level Seattle Center
02:02PM 46.5461 -120.8192 41° Northeast 147 169 9,000  Climbing Seattle Center
02:03PM 46.5758 -120.7811 38° Northeast 147 169 8,900 -60 Descending Seattle Center
02:04PM 46.6100 -120.7417 24° Northeast 149 171 8,900  Level Seattle Center
02:05PM 46.6458 -120.7189 28° Northeast 142 163 8,900  Level Seattle Center
02:06PM 46.6806 -120.6925 22° Northeast 142 163 8,900  Level Seattle Center
02:07PM 46.7178 -120.6706 28° Northeast 143 165 9,000  Climbing Seattle Center
02:08PM 46.7561 -120.6406 33° Northeast 146 168 8,900 -60 Descending Seattle Center
02:09PM 46.7894 -120.6094 15° North 143 165 8,900  Level Seattle Center
02:11PM 46.8261 -120.5953 19° North 136 157 9,000  Climbing Seattle Center
02:12PM 46.8636 -120.5761 23° Northeast 147 169 8,900 -60 Descending Seattle Center
02:13PM 46.9028 -120.5522 27° Northeast 143 165 8,900  Level Seattle Center
02:14PM 46.9372 -120.5261 49° Northeast 140 161 9,000  Climbing Seattle Center
02:15PM 46.9639 -120.4814 59° Northeast 149 171 8,900 -60 Descending Seattle Center
02:16PM 46.9836 -120.4339 66° East 149 171 8,900  Level Seattle Center
02:17PM 46.9992 -120.3833 66° East 148 170 8,900  Level Seattle Center